Time;durP1;ratioP1;P1;durP2;ratioP2;P2;SDS_P1;SDS_P2;PMS_P1;PMS_P2;Temp;Humidity;BMP_temperature;BMP_pressure;BME280_temperature;BME280_humidity;BME280_pressure;Samples;Min_cycle;Max_cycle;Signal;HPM_P1;HPM_P2
2023/07/09 00:01:19;;;;;;;8.43;2.38;;;;;;;23.47;42.64;100592.53;5112703;28;20028;-86
2023/07/09 00:03:54;;;;;;;4.28;2.10;;;;;;;23.51;42.47;100588.31;5112601;28;20020;-85
2023/07/09 00:06:19;;;;;;;9.80;2.47;;;;;;;23.51;42.50;100587.47;5112188;28;20032;-86
2023/07/09 00:08:47;;;;;;;7.50;2.47;;;;;;;23.52;42.25;100583.63;5111657;28;20016;-84
2023/07/09 00:11:14;;;;;;;2.63;1.85;;;;;;;23.57;42.07;100603.09;5112330;28;20039;-85
2023/07/09 00:13:39;;;;;;;6.38;2.55;;;;;;;23.54;42.20;100585.13;5111300;28;20099;-87
2023/07/09 00:16:20;;;;;;;4.95;2.15;;;;;;;23.53;42.08;100586.19;5115083;28;20081;-88
2023/07/09 00:18:48;;;;;;;14.60;2.55;;;;;;;23.45;42.05;100577.31;5114300;28;20027;-85
2023/07/09 00:21:21;;;;;;;4.65;2.20;;;;;;;23.46;42.25;100578.97;5115040;28;20032;-88
2023/07/09 00:23:50;;;;;;;2.85;2.17;;;;;;;23.46;41.99;100598.19;5096944;28;20028;-84
2023/07/09 00:26:23;;;;;;;8.00;2.55;;;;;;;23.40;42.04;100580.66;5119182;28;20031;-87
2023/07/09 00:28:48;;;;;;;7.50;1.98;;;;;;;23.45;42.08;100586.41;5100886;28;20028;-86
2023/07/09 00:31:18;;;;;;;6.47;2.67;;;;;;;23.44;42.00;100576.47;5128174;28;20035;-87
2023/07/09 00:33:47;;;;;;;5.43;1.90;;;;;;;23.44;41.95;100573.72;5106253;28;20047;-86
2023/07/09 00:36:20;;;;;;;5.10;2.40;;;;;;;23.43;42.32;100577.50;5114816;28;20034;-84
2023/07/09 00:38:47;;;;;;;9.57;2.15;;;;;;;23.43;42.43;100569.28;5114808;28;20053;-85
2023/07/09 00:41:19;;;;;;;4.93;2.22;;;;;;;23.34;42.34;100567.75;5114917;28;20046;-85
2023/07/09 00:43:46;;;;;;;;;;;;;;;23.39;42.54;100572.63;5096844;28;20032;-84
2023/07/09 00:46:23;;;;;;;17.95;2.40;;;;;;;23.32;42.71;100572.63;5114819;28;19912;-87
2023/07/09 00:49:08;;;;;;;7.97;2.50;;;;;;;23.27;42.67;100575.16;5113781;28;20031;-87
2023/07/09 00:51:41;;;;;;;12.73;2.58;;;;;;;23.27;43.00;100569.66;5121427;28;20035;-84
2023/07/09 00:54:30;;;;;;;3.45;2.33;;;;;;;23.28;43.17;100571.34;5114503;28;20028;-84
2023/07/09 00:57:01;;;;;;;4.03;2.17;;;;;;;23.28;43.07;100577.66;5113120;28;20027;-86
2023/07/09 00:59:31;;;;;;;8.80;2.03;;;;;;;23.07;43.06;100530.34;5113328;28;20475;-87
2023/07/09 01:02:00;;;;;;;5.45;2.47;;;;;;;23.24;43.19;100564.56;5112666;28;20273;-88
2023/07/09 01:04:27;;;;;;;6.50;1.95;;;;;;;23.18;43.26;100570.88;5112545;28;20503;-87
2023/07/09 01:06:56;;;;;;;4.10;2.30;;;;;;;23.19;43.70;100572.59;5112661;28;20031;-86
2023/07/09 01:09:23;;;;;;;4.68;2.55;;;;;;;23.05;44.64;100554.41;5097679;28;20603;-84
2023/07/09 01:11:48;;;;;;;11.90;1.80;;;;;;;23.06;45.01;100556.06;5091894;28;20114;-87
2023/07/09 01:14:21;;;;;;;3.45;2.17;;;;;;;23.16;43.97;100568.38;5091666;28;20122;-87
2023/07/09 01:16:56;;;;;;;6.50;2.45;;;;;;;23.08;45.13;100571.31;5090769;28;20031;-85
2023/07/09 01:19:30;;;;;;;7.28;2.60;;;;;;;22.81;45.68;100533.03;5091442;28;20027;-86
2023/07/09 01:22:00;;;;;;;12.27;3.28;;;;;;;23.00;46.05;100590.69;5091262;28;20032;-87
2023/07/09 01:25:01;;;;;;;6.18;2.05;;;;;;;22.91;46.62;100580.09;5090783;28;20082;-85
2023/07/09 01:27:45;;;;;;;5.32;2.35;;;;;;;22.87;46.59;100578.84;5072737;28;20492;-89
2023/07/09 01:30:23;;;;;;;12.20;2.72;;;;;;;22.93;46.65;100592.56;5090940;28;20044;-86
2023/07/09 01:32:50;;;;;;;6.40;2.03;;;;;;;22.80;46.84;100583.44;5073530;28;20036;-87
2023/07/09 01:35:25;;;;;;;7.60;2.97;;;;;;;22.87;46.89;100596.16;5092107;28;20037;-83
2023/07/09 01:37:51;;;;;;;7.90;2.60;;;;;;;22.86;46.61;100593.59;5088456;28;20036;-83
2023/07/09 01:40:19;;;;;;;4.70;2.55;;;;;;;22.82;46.77;100598.63;5073516;28;20069;-84
2023/07/09 01:42:45;;;;;;;7.05;2.70;;;;;;;22.77;46.74;100595.66;5089619;28;20443;-84
2023/07/09 01:45:12;;;;;;;9.95;2.30;;;;;;;22.80;46.58;100600.75;5089760;28;20028;-84
2023/07/09 01:47:38;;;;;;;2.55;1.88;;;;;;;22.88;46.24;100613.41;5089085;28;20507;-85
2023/07/09 01:50:07;;;;;;;5.55;2.35;;;;;;;22.85;45.99;100611.09;5089026;28;20138;-84
2023/07/09 01:52:34;;;;;;;5.03;1.92;;;;;;;22.82;46.43;100614.25;5089556;28;20479;-83
2023/07/09 01:55:00;;;;;;;4.25;2.10;;;;;;;22.82;45.86;100614.25;5089111;28;20099;-84
2023/07/09 01:57:33;;;;;;;6.93;2.28;;;;;;;22.78;46.11;100611.91;5088812;28;20027;-83
2023/07/09 02:00:05;;;;;;;6.95;2.53;;;;;;;22.76;45.96;100610.41;5090322;28;20126;-86
2023/07/09 02:02:32;;;;;;;4.60;2.20;;;;;;;22.75;46.01;100617.81;5090394;28;20632;-86
2023/07/09 02:04:57;;;;;;;8.93;2.67;;;;;;;22.67;45.89;100608.91;5109951;28;20662;-83
2023/07/09 02:07:24;;;;;;;4.28;2.00;;;;;;;22.60;45.93;100614.31;5110948;28;20034;-84
2023/07/09 02:09:51;;;;;;;4.72;2.33;;;;;;;22.56;46.09;100626.75;5110225;28;20031;-87
2023/07/09 02:12:17;;;;;;;5.25;2.35;;;;;;;22.53;46.17;100629.06;5111003;28;20030;-85
2023/07/09 02:14:45;;;;;;;9.05;2.33;;;;;;;22.41;46.39;100630.66;5108019;28;20038;-85
2023/07/09 02:17:12;;;;;;;5.95;1.95;;;;;;;22.48;46.26;100643.34;5092350;28;20023;-85
2023/07/09 02:19:38;;;;;;;6.15;2.60;;;;;;;22.28;46.72;100641.53;5110086;28;20024;-85
2023/07/09 02:22:11;;;;;;;7.43;2.65;;;;;;;22.27;46.86;100643.41;5110292;28;20411;-85
2023/07/09 02:24:37;;;;;;;5.70;2.35;;;;;;;22.24;46.67;100654.78;5109945;28;20032;-86
2023/07/09 02:27:06;;;;;;;5.55;2.65;;;;;;;22.14;47.08;100637.84;5078109;28;20031;-86
2023/07/09 02:29:33;;;;;;;8.27;2.63;;;;;;;22.12;47.03;100640.78;5118134;28;20053;-84
2023/07/09 02:32:00;;;;;;;10.80;2.72;;;;;;;22.16;47.20;100652.22;5112798;28;20028;-88
2023/07/09 02:34:41;;;;;;;8.90;2.85;;;;;;;22.08;47.21;100655.94;5068855;28;20127;-89
2023/07/09 02:37:07;;;;;;;4.47;2.58;;;;;;;22.10;47.42;100653.84;5067307;28;20032;-89
2023/07/09 02:39:33;;;;;;;4.25;2.03;;;;;;;22.05;47.40;100650.00;5047113;28;20072;-85
2023/07/09 02:41:58;;;;;;;2.13;1.92;;;;;;;22.06;47.39;100651.69;5027446;28;20053;-86
2023/07/09 02:44:23;;;;;;;10.68;2.88;;;;;;;22.04;47.33;100654.66;5026176;28;20034;-86
2023/07/09 02:46:49;;;;;;;6.40;2.50;;;;;;;21.98;47.54;100649.13;5026065;28;20041;-86
2023/07/09 02:49:15;;;;;;;4.15;2.22;;;;;;;22.02;47.52;100669.56;5025477;28;20022;-86
2023/07/09 02:51:41;;;;;;;9.93;2.63;;;;;;;21.99;47.67;100668.06;5009562;28;20216;-86
2023/07/09 02:54:07;;;;;;;7.97;2.42;;;;;;;22.01;47.56;100673.38;5027021;28;20108;-86
2023/07/09 02:56:33;;;;;;;4.10;2.45;;;;;;;21.96;47.66;100667.63;5027021;28;20037;-85
2023/07/09 02:58:58;;;;;;;5.38;2.30;;;;;;;21.94;47.73;100669.72;5028703;28;20052;-85
2023/07/09 03:01:27;;;;;;;5.63;2.03;;;;;;;21.97;47.84;100672.06;5039110;28;20087;-85
2023/07/09 03:03:55;;;;;;;5.63;2.55;;;;;;;21.94;47.94;100666.97;5027664;28;20045;-86
2023/07/09 03:06:22;;;;;;;9.30;2.80;;;;;;;21.93;47.88;100685.28;5027314;28;20061;-86
2023/07/09 03:08:52;;;;;;;8.10;2.67;;;;;;;21.91;48.14;100676.44;5027318;28;20029;-85
2023/07/09 03:11:18;;;;;;;6.80;2.72;;;;;;;21.94;47.93;100677.94;5007730;28;20046;-86
2023/07/09 03:13:44;;;;;;;7.00;2.60;;;;;;;21.85;48.04;100654.44;5007426;28;20518;-86
2023/07/09 03:16:16;;;;;;;4.95;2.25;;;;;;;21.84;48.35;100652.72;5013938;28;20074;-88
2023/07/09 03:18:41;;;;;;;;;;;;;;;21.90;48.19;100676.63;5031733;28;20032;-86
2023/07/09 03:21:07;;;;;;;4.00;2.67;;;;;;;21.89;48.12;100662.09;5061700;28;19905;-87
2023/07/09 03:23:33;;;;;;;7.85;2.35;;;;;;;21.89;48.27;100669.47;5069349;28;20044;-89
2023/07/09 03:25:59;;;;;;;6.03;2.75;;;;;;;21.86;48.25;100664.34;5096559;28;20463;-85
2023/07/09 03:28:25;;;;;;;6.88;2.30;;;;;;;21.88;48.28;100662.25;5088214;28;20547;-88
2023/07/09 03:30:53;;;;;;;6.53;2.58;;;;;;;22.01;48.10;100670.63;5070192;28;20123;-89
2023/07/09 03:33:19;;;;;;;2.70;2.08;;;;;;;22.02;47.78;100667.69;5070219;28;20032;-86
2023/07/09 03:35:45;;;;;;;21.27;3.15;;;;;;;22.05;47.94;100669.16;5088044;28;20097;-87
2023/07/09 03:38:11;;;;;;;6.00;2.72;;;;;;;22.04;48.07;100670.22;5087909;28;20138;-88
2023/07/09 03:40:37;;;;;;;7.18;2.53;;;;;;;22.03;48.11;100674.00;5073058;28;20069;-85
2023/07/09 03:43:04;;;;;;;7.13;2.42;;;;;;;22.06;48.02;100670.88;5099124;28;20050;-85
2023/07/09 03:45:30;;;;;;;3.75;2.33;;;;;;;21.99;48.28;100667.22;5108293;28;20050;-85
2023/07/09 03:47:56;;;;;;;8.82;2.80;;;;;;;21.99;48.10;100661.75;5108814;28;20028;-85
2023/07/09 03:50:22;;;;;;;5.13;2.25;;;;;;;21.99;48.30;100667.22;5108630;28;20054;-86
2023/07/09 03:52:47;;;;;;;3.30;2.10;;;;;;;21.97;48.34;100666.59;5087786;28;20024;-86
2023/07/09 03:55:13;;;;;;;4.45;2.35;;;;;;;21.98;48.43;100671.88;5089466;28;20092;-85
2023/07/09 03:57:38;;;;;;;4.15;2.65;;;;;;;21.88;48.35;100665.00;5108419;28;20031;-85
2023/07/09 04:00:14;;;;;;;6.22;2.70;;;;;;;21.94;48.29;100680.66;5109910;28;20039;-88
2023/07/09 04:02:41;;;;;;;5.25;2.85;;;;;;;21.93;48.28;100674.34;5112188;28;20023;-87
2023/07/09 04:05:10;;;;;;;3.65;2.67;;;;;;;21.67;48.37;100619.31;5114399;28;20372;-87
2023/07/09 04:07:36;;;;;;;9.73;2.75;;;;;;;21.85;48.53;100654.44;5095256;28;20028;-85
2023/07/09 04:10:08;;;;;;;3.22;2.67;;;;;;;21.89;48.47;100664.00;5113851;28;20028;-87
2023/07/09 04:12:34;;;;;;;6.30;2.55;;;;;;;21.87;48.31;100657.81;5095930;28;20020;-85
2023/07/09 04:15:00;;;;;;;6.07;2.22;;;;;;;21.82;48.74;100668.53;5114686;28;20106;-87
2023/07/09 04:17:33;;;;;;;15.20;4.05;;;;;;;21.73;48.88;100669.69;5114584;28;20028;-88
2023/07/09 04:19:59;;;;;;;6.93;3.25;;;;;;;21.70;48.97;100662.72;5115641;28;20148;-86
2023/07/09 04:22:33;;;;;;;7.03;2.58;;;;;;;21.76;48.88;100661.94;5128188;28;20035;-86
2023/07/09 04:24:59;;;;;;;4.55;2.50;;;;;;;21.81;48.92;100664.94;5112236;28;20027;-86
2023/07/09 04:27:27;;;;;;;10.63;3.00;;;;;;;21.82;48.75;100657.56;5126410;28;20106;-87
2023/07/09 04:29:53;;;;;;;3.85;2.28;;;;;;;21.89;48.67;100661.25;5121715;28;20062;-86
2023/07/09 04:32:24;;;;;;;12.68;2.75;;;;;;;21.89;48.67;100653.03;5119716;28;20136;-87
2023/07/09 04:34:50;;;;;;;5.03;2.92;;;;;;;21.82;48.78;100643.88;5120870;28;20480;-87
2023/07/09 04:37:20;;;;;;;7.30;2.33;;;;;;;21.95;48.55;100671.41;5117927;28;20024;-89
2023/07/09 04:39:47;;;;;;;6.05;3.05;;;;;;;21.92;48.53;100655.38;5118012;28;20323;-86
2023/07/09 04:42:15;;;;;;;7.30;2.90;;;;;;;21.80;48.35;100641.34;5116975;28;20527;-88
2023/07/09 04:44:40;;;;;;;12.98;3.00;;;;;;;21.90;48.57;100649.25;5115894;28;20035;-87
2023/07/09 04:47:06;;;;;;;5.18;2.72;;;;;;;21.94;48.37;100639.59;5097829;28;20487;-86
2023/07/09 04:49:35;;;;;;;4.65;2.95;;;;;;;22.04;48.28;100649.16;5116383;28;20031;-89
2023/07/09 04:52:00;;;;;;;8.02;2.88;;;;;;;22.14;48.29;100649.66;5114110;28;20028;-86
2023/07/09 04:54:27;;;;;;;6.00;3.03;;;;;;;22.19;47.98;100652.66;5114842;28;20019;-86
2023/07/09 04:56:56;;;;;;;10.43;2.65;;;;;;;22.19;47.95;100635.38;5114397;28;20031;-88
2023/07/09 04:59:27;;;;;;;5.22;2.60;;;;;;;22.17;47.83;100642.91;5112991;28;20028;-87
2023/07/09 05:01:53;;;;;;;12.45;2.95;;;;;;;22.13;47.89;100647.13;5096206;28;20092;-88
2023/07/09 05:04:19;;;;;;;9.77;2.67;;;;;;;22.13;48.04;100650.72;5115880;28;20139;-88
2023/07/09 05:06:45;;;;;;;10.02;2.30;;;;;;;22.09;47.86;100635.72;5113291;28;20523;-87
2023/07/09 05:09:10;;;;;;;3.92;2.75;;;;;;;22.23;47.85;100647.63;5113080;28;20028;-86
2023/07/09 05:11:36;;;;;;;4.28;2.25;;;;;;;22.23;47.82;100621.06;5096554;28;20023;-86
2023/07/09 05:14:07;;;;;;;12.65;3.08;;;;;;;22.39;47.26;100636.34;5120427;28;20047;-89
2023/07/09 05:16:45;;;;;;;7.30;2.80;;;;;;;22.45;47.40;100624.56;5083199;28;20037;-89
2023/07/09 05:19:11;;;;;;;7.28;2.78;;;;;;;22.46;46.92;100609.81;5075165;28;20044;-88
2023/07/09 05:21:36;;;;;;;12.93;2.75;;;;;;;22.78;46.60;100649.47;5071419;28;20118;-84
2023/07/09 05:24:02;;;;;;;16.38;3.42;;;;;;;22.84;46.46;100640.44;5070525;28;20051;-88
2023/07/09 05:26:27;;;;;;;12.70;2.55;;;;;;;22.98;46.21;100641.31;5071747;28;20085;-88
2023/07/09 05:28:56;;;;;;;4.65;2.70;;;;;;;23.11;45.90;100647.72;5052089;28;20039;-91
2023/07/09 05:31:28;;;;;;;7.15;2.83;;;;;;;23.22;45.62;100635.28;5078947;28;20036;-92
2023/07/09 05:33:53;;;;;;;7.22;3.08;;;;;;;23.27;45.63;100624.56;5063801;28;20052;-91
2023/07/09 05:36:25;;;;;;;7.18;2.75;;;;;;;23.36;45.54;100634.28;5088536;28;20059;-88
2023/07/09 05:38:51;;;;;;;9.02;3.05;;;;;;;23.52;45.32;100642.16;5057413;28;20032;-86
2023/07/09 05:41:16;;;;;;;10.23;2.95;;;;;;;23.51;45.33;100642.38;5038016;28;20436;-87
2023/07/09 05:43:43;;;;;;;6.13;2.40;;;;;;;23.47;45.08;100661.16;5067629;28;20029;-85
2023/07/09 05:46:09;;;;;;;23.65;3.22;;;;;;;23.45;45.22;100649.53;5068066;28;20498;-89
2023/07/09 05:48:34;;;;;;;6.15;2.90;;;;;;;23.37;45.33;100630.47;5110659;28;20097;-88
2023/07/09 05:51:00;;;;;;;9.95;2.78;;;;;;;23.51;45.25;100658.84;5093859;28;20488;-91
2023/07/09 05:53:26;;;;;;;7.07;2.63;;;;;;;23.54;45.35;100655.69;5093470;28;20089;-86
2023/07/09 05:55:58;;;;;;;7.13;2.92;;;;;;;23.64;45.15;100658.84;5100568;28;20103;-86
2023/07/09 05:58:24;;;;;;;5.35;2.95;;;;;;;23.78;44.86;100661.44;5112234;28;20038;-79
2023/07/09 06:00:53;;;;;;;3.28;2.10;;;;;;;23.83;44.22;100656.13;5110469;28;20031;-80
2023/07/09 06:03:19;;;;;;;4.18;2.50;;;;;;;23.89;44.38;100661.84;5105618;28;20023;-81
2023/07/09 06:05:45;;;;;;;10.98;2.53;;;;;;;23.94;44.29;100665.66;5066797;28;20040;-88
2023/07/09 06:08:13;;;;;;;12.48;3.15;;;;;;;24.02;43.82;100667.34;5066847;28;20048;-88
2023/07/09 06:10:41;;;;;;;8.35;2.95;;;;;;;24.09;43.79;100657.22;5066929;28;20076;-86
2023/07/09 06:13:07;;;;;;;7.68;2.72;;;;;;;24.10;43.47;100640.50;5049499;28;20024;-87
2023/07/09 06:15:38;;;;;;;9.43;2.75;;;;;;;24.26;43.64;100659.34;5065275;28;20543;-88
2023/07/09 06:18:15;;;;;;;7.55;3.03;;;;;;;24.36;43.42;100653.41;5069277;28;20195;-87
2023/07/09 06:20:46;;;;;;;18.80;3.78;;;;;;;24.38;43.14;100663.13;5066363;28;20040;-85
2023/07/09 06:23:11;;;;;;;8.02;2.60;;;;;;;24.37;43.24;100641.34;5066887;28;20024;-89
2023/07/09 06:25:38;;;;;;;8.70;3.05;;;;;;;24.43;42.82;100657.00;5066690;28;20097;-84
2023/07/09 06:28:04;;;;;;;10.00;2.83;;;;;;;24.34;43.04;100655.53;5066318;28;20025;-87
2023/07/09 06:30:30;;;;;;;10.35;3.28;;;;;;;24.36;43.18;100656.16;5066051;28;20131;-86
2023/07/09 06:32:55;;;;;;;13.10;3.92;;;;;;;24.33;43.35;100637.34;5065979;28;20511;-91
2023/07/09 06:35:21;;;;;;;5.07;3.03;;;;;;;24.26;43.71;100652.97;5050304;28;20036;-87
2023/07/09 06:37:46;;;;;;;8.85;2.92;;;;;;;24.32;43.32;100652.13;5106166;28;20142;-88
2023/07/09 06:40:12;;;;;;;12.23;3.65;;;;;;;24.33;43.39;100659.34;5106134;28;20043;-86
2023/07/09 06:42:38;;;;;;;19.83;4.15;;;;;;;24.41;43.52;100659.09;5100202;28;20110;-85
2023/07/09 06:45:04;;;;;;;15.65;3.58;;;;;;;24.41;43.28;100644.50;5109541;28;20034;-85
2023/07/09 06:47:30;;;;;;;13.35;3.65;;;;;;;24.46;41.84;100653.81;5105463;28;20020;-80
2023/07/09 06:49:55;;;;;;;27.48;3.67;;;;;;;24.56;42.37;100648.69;5103651;28;20371;-80
2023/07/09 06:52:21;;;;;;;23.20;4.75;;;;;;;24.68;41.15;100652.47;5110066;28;20047;-79
2023/07/09 06:54:46;;;;;;;17.90;3.63;;;;;;;24.65;41.22;100652.91;5108165;28;20481;-83
2023/07/09 06:57:11;;;;;;;32.95;4.32;;;;;;;24.77;41.37;100661.34;5095982;28;20020;-82
2023/07/09 06:59:38;;;;;;;21.58;5.82;;;;;;;24.76;41.09;100649.50;5088381;28;20061;-89
2023/07/09 07:02:04;;;;;;;15.55;5.78;;;;;;;24.76;40.52;100630.25;5100999;28;20089;-86
2023/07/09 07:04:29;;;;;;;20.60;5.28;;;;;;;24.82;40.33;100640.41;5098155;28;20479;-90
2023/07/09 07:06:56;;;;;;;32.83;5.65;;;;;;;24.81;40.55;100646.97;5091885;28;20484;-89
2023/07/09 07:09:22;;;;;;;25.95;6.00;;;;;;;24.72;40.29;100637.25;5095631;28;20051;-88
2023/07/09 07:11:49;;;;;;;12.77;4.25;;;;;;;24.79;40.75;100642.72;5101701;28;20474;-78
2023/07/09 07:14:15;;;;;;;20.92;5.80;;;;;;;24.78;40.51;100619.88;5108695;28;20450;-90
2023/07/09 07:16:41;;;;;;;24.35;4.45;;;;;;;24.80;40.44;100639.75;5104791;28;20047;-86
2023/07/09 07:19:06;;;;;;;23.67;4.70;;;;;;;24.77;40.50;100620.06;5094580;28;20037;-85
2023/07/09 07:21:32;;;;;;;37.88;6.15;;;;;;;24.75;40.94;100628.56;5103645;28;20017;-89
2023/07/09 07:23:57;;;;;;;19.48;4.85;;;;;;;24.68;40.83;100613.97;5067000;28;20044;-88
2023/07/09 07:26:23;;;;;;;27.48;7.18;;;;;;;24.76;40.87;100615.66;5043785;28;20041;-85
2023/07/09 07:28:50;;;;;;;13.32;6.13;;;;;;;24.87;40.79;100631.50;5064960;28;20132;-86
2023/07/09 07:31:16;;;;;;;27.70;6.05;;;;;;;24.85;40.37;100634.47;5065952;28;20098;-89
2023/07/09 07:33:42;;;;;;;19.55;3.60;;;;;;;24.87;40.58;100640.59;5067882;28;20564;-86
2023/07/09 07:36:08;;;;;;;14.02;3.75;;;;;;;24.94;40.62;100631.47;5066285;28;20028;-90
2023/07/09 07:38:33;;;;;;;19.77;5.03;;;;;;;25.02;40.24;100645.81;5069347;28;20122;-88
2023/07/09 07:41:00;;;;;;;31.80;5.15;;;;;;;25.09;40.37;100619.13;5052837;28;20504;-83
2023/07/09 07:43:26;;;;;;;16.75;3.50;;;;;;;25.19;39.58;100638.78;5055561;28;20519;-90
2023/07/09 07:45:51;;;;;;;11.32;3.40;;;;;;;25.36;39.68;100628.06;5057877;28;20028;-81
2023/07/09 07:48:17;;;;;;;12.60;3.65;;;;;;;25.40;39.43;100623.81;5069563;28;20217;-81
2023/07/09 07:50:42;;;;;;;23.63;5.68;;;;;;;25.47;39.08;100621.88;5069819;28;20068;-84
2023/07/09 07:53:09;;;;;;;12.88;3.92;;;;;;;25.47;39.09;100652.19;5061292;28;20045;-85
2023/07/09 07:55:36;;;;;;;18.77;4.43;;;;;;;25.51;38.61;100625.03;5098124;28;20104;-83
2023/07/09 07:58:03;;;;;;;14.05;4.40;;;;;;;25.68;38.62;100632.56;5110588;28;20020;-84
2023/07/09 08:00:29;;;;;;;14.65;3.47;;;;;;;25.80;38.43;100636.28;5105323;28;20510;-90
2023/07/09 08:02:55;;;;;;;15.40;3.10;;;;;;;25.73;38.55;100605.19;5111426;28;20031;-87
2023/07/09 08:05:20;;;;;;;17.13;3.13;;;;;;;25.88;38.63;100604.84;5128056;27;20030;-86
2023/07/09 08:07:46;;;;;;;19.02;4.22;;;;;;;26.08;38.27;100646.03;5099803;27;20024;-84
2023/07/09 08:10:12;;;;;;;16.40;3.83;;;;;;;26.08;37.59;100635.00;5101533;28;20076;-86
2023/07/09 08:12:39;;;;;;;10.68;2.90;;;;;;;25.91;37.90;100583.19;5114572;28;20053;-85
2023/07/09 08:15:06;;;;;;;32.10;4.47;;;;;;;26.18;37.75;100621.56;5111400;28;20525;-82
2023/07/09 08:17:31;;;;;;;18.40;3.88;;;;;;;26.13;37.54;100629.66;5104861;28;20482;-84
2023/07/09 08:19:57;;;;;;;22.63;3.63;;;;;;;25.93;37.88;100614.13;5111975;28;20042;-87
2023/07/09 08:22:22;;;;;;;13.10;3.45;;;;;;;25.97;38.03;100622.78;5106059;28;20024;-81
2023/07/09 08:24:48;;;;;;;8.45;3.10;;;;;;;25.97;38.14;100628.28;5109860;28;20147;-82
2023/07/09 08:27:14;;;;;;;14.23;3.05;;;;;;;25.97;37.90;100609.84;5113111;28;20028;-84
2023/07/09 08:29:41;;;;;;;8.93;3.88;;;;;;;26.04;37.65;100619.97;5113120;28;20119;-83
2023/07/09 08:32:08;;;;;;;21.70;4.75;;;;;;;26.15;37.20;100621.97;5105536;28;20081;-84
2023/07/09 08:34:33;;;;;;;13.63;4.57;;;;;;;26.18;37.72;100616.91;5110837;28;20035;-82
2023/07/09 08:36:59;;;;;;;20.90;4.28;;;;;;;26.22;37.62;100617.28;5114926;28;20024;-81
2023/07/09 08:39:25;;;;;;;24.20;3.80;;;;;;;26.37;37.49;100626.91;5106021;28;20039;-91
2023/07/09 08:42:03;;;;;;;13.85;3.63;;;;;;;26.57;37.92;100625.84;5111764;28;20886;-91
2023/07/09 08:44:52;;;;;;;14.85;3.92;;;;;;;26.71;37.42;100628.22;5112051;28;20042;-86
2023/07/09 08:47:48;;;;;;;15.63;3.53;;;;;;;26.84;37.56;100617.06;4992416;28;20153;-85
2023/07/09 08:50:21;;;;;;;21.58;3.42;;;;;;;27.03;37.47;100623.41;5008528;28;20022;-83
2023/07/09 08:52:50;;;;;;;16.70;3.65;;;;;;;27.18;37.34;100623.84;5011444;28;20048;-82
2023/07/09 08:55:22;;;;;;;6.97;2.90;;;;;;;27.40;36.60;100632.47;5008568;28;20062;-87
2023/07/09 08:57:52;;;;;;;7.72;2.70;;;;;;;27.56;36.80;100629.03;5011694;28;20197;-83
2023/07/09 09:00:21;;;;;;;15.75;3.35;;;;;;;27.65;36.41;100624.88;4995310;28;20503;-85
2023/07/09 09:02:56;;;;;;;10.52;2.97;;;;;;;27.87;35.55;100639.81;5023838;28;20037;-81
2023/07/09 09:05:23;;;;;;;12.95;2.88;;;;;;;28.02;34.95;100642.13;5019116;28;20034;-77
2023/07/09 09:07:57;;;;;;;10.23;2.50;;;;;;;28.01;35.01;100641.28;5020566;28;20041;-79
2023/07/09 09:10:56;;;;;;;11.93;3.08;;;;;;;28.08;34.55;100631.00;5008410;28;20037;-79
2023/07/09 09:13:27;;;;;;;8.68;3.13;;;;;;;28.13;34.33;100648.81;4970454;28;20732;-84
2023/07/09 09:15:59;;;;;;;16.02;3.00;;;;;;;28.09;34.34;100663.09;4970017;28;20058;-81
2023/07/09 09:18:35;;;;;;;31.23;4.68;;;;;;;28.12;34.38;100658.16;4970055;28;20122;-85
2023/07/09 09:21:20;;;;;;;13.02;3.20;;;;;;;28.09;33.89;100660.34;4939376;29;20656;-75
2023/07/09 09:23:52;;;;;;;9.90;3.33;;;;;;;28.00;34.51;100667.28;4956010;28;20045;-80
2023/07/09 09:26:23;;;;;;;13.20;3.17;;;;;;;28.05;34.56;100656.34;5036977;28;20041;-80
2023/07/09 09:28:49;;;;;;;8.48;2.45;;;;;;;28.17;34.72;100666.59;5029063;28;20037;-88
2023/07/09 09:31:16;;;;;;;10.70;2.30;;;;;;;28.14;34.42;100667.06;5026409;28;20528;-79
2023/07/09 09:33:45;;;;;;;13.50;2.97;;;;;;;28.01;34.75;100655.09;5026800;28;20037;-85
2023/07/09 09:36:25;;;;;;;4.75;2.78;;;;;;;28.07;34.40;100678.25;5042216;28;20472;-76
2023/07/09 09:38:51;;;;;;;16.90;3.28;;;;;;;28.14;33.75;100680.88;5034074;28;20128;-78
2023/07/09 09:41:24;;;;;;;10.07;3.50;;;;;;;28.05;33.73;100670.19;5026203;28;20073;-79
2023/07/09 09:43:53;;;;;;;11.15;3.67;;;;;;;28.06;34.02;100671.88;5039182;28;20132;-88
2023/07/09 09:46:25;;;;;;;12.65;2.97;;;;;;;28.14;34.39;100681.75;5028897;28;20040;-80
2023/07/09 09:48:54;;;;;;;6.53;3.45;;;;;;;28.07;33.72;100665.25;5038294;28;20915;-78
2023/07/09 09:51:22;;;;;;;7.07;3.50;;;;;;;28.16;34.34;100676.84;5106797;28;20024;-77
2023/07/09 09:53:55;;;;;;;14.55;3.20;;;;;;;28.14;34.40;100681.75;5107209;28;20035;-77
2023/07/09 09:56:28;;;;;;;6.95;2.90;;;;;;;28.21;34.48;100701.00;5108773;28;20088;-79
2023/07/09 09:58:55;;;;;;;5.47;3.25;;;;;;;28.15;33.89;100671.53;5108310;28;20026;-76
2023/07/09 10:01:26;;;;;;;16.38;3.63;;;;;;;28.19;33.66;100692.09;5108446;28;20031;-77
2023/07/09 10:03:56;;;;;;;9.67;3.13;;;;;;;28.26;34.20;100692.81;5107698;28;20020;-77
2023/07/09 10:06:46;;;;;;;14.38;3.25;;;;;;;28.29;33.69;100686.78;5108704;28;20292;-75
2023/07/09 10:09:40;;;;;;;15.23;4.07;;;;;;;28.36;33.57;100696.69;5026563;28;20049;-78
2023/07/09 10:12:17;;;;;;;20.85;4.57;;;;;;;28.44;33.38;100688.00;5026692;28;20017;-82
2023/07/09 10:14:56;;;;;;;13.75;3.40;;;;;;;28.69;32.64;100698.88;4997093;28;20033;-76
2023/07/09 10:17:43;;;;;;;17.00;3.47;;;;;;;28.83;32.64;100689.25;5024677;28;20029;-76
2023/07/09 10:20:31;;;;;;;24.88;3.13;;;;;;;28.96;32.76;100700.03;5009639;28;20069;-75
2023/07/09 10:23:34;;;;;;;9.68;3.30;;;;;;;29.10;32.66;100690.41;5026456;28;20173;-79
2023/07/09 10:26:20;;;;;;;19.90;3.80;;;;;;;29.29;31.82;100687.50;5024334;28;20572;-80
2023/07/09 10:28:57;;;;;;;7.70;2.90;;;;;;;29.36;31.75;100685.41;5023812;28;20100;-80
2023/07/09 10:31:41;;;;;;;14.85;2.65;;;;;;;29.34;31.77;100687.59;5033143;28;20619;-79
2023/07/09 10:34:25;;;;;;;8.45;2.50;;;;;;;29.32;31.94;100698.09;5010018;28;20038;-82
2023/07/09 10:36:56;;;;;;;8.60;2.63;;;;;;;29.31;32.23;100688.06;5017606;28;20041;-78
2023/07/09 10:39:32;;;;;;;5.50;2.83;;;;;;;29.34;32.38;100696.75;5025567;28;20520;-80
2023/07/09 10:42:00;;;;;;;16.65;3.13;;;;;;;29.42;31.85;100676.94;5025238;28;20542;-78
2023/07/09 10:44:38;;;;;;;11.35;3.70;;;;;;;29.55;31.48;100689.66;5013384;28;20120;-80
2023/07/09 10:47:09;;;;;;;7.10;3.20;;;;;;;29.60;31.31;100673.16;5082022;28;20036;-81
2023/07/09 10:49:39;;;;;;;12.77;3.20;;;;;;;29.66;31.34;100669.38;5088041;28;20032;-79
2023/07/09 10:52:20;;;;;;;10.38;5.03;;;;;;;29.80;31.50;100675.44;5086930;28;20504;-80
2023/07/09 10:55:09;;;;;;;10.70;3.15;;;;;;;29.89;31.03;100680.38;5087116;28;20036;-82
2023/07/09 10:58:18;;;;;;;11.02;3.10;;;;;;;30.01;30.94;100680.28;5087430;28;20568;-78
2023/07/09 11:00:44;;;;;;;18.85;3.88;;;;;;;30.03;30.37;100695.59;5024480;28;20041;-77
2023/07/09 11:03:23;;;;;;;18.75;4.40;;;;;;;29.94;29.60;100683.22;5024734;28;20056;-78
2023/07/09 11:05:51;;;;;;;8.15;3.00;;;;;;;29.87;30.09;100665.06;5024342;28;20075;-79
2023/07/09 11:08:38;;;;;;;13.93;3.45;;;;;;;29.90;30.03;100681.22;5026596;28;20091;-78
2023/07/09 11:11:13;;;;;;;9.52;3.10;;;;;;;29.91;30.60;100675.41;5031835;28;20105;-79
2023/07/09 11:13:50;;;;;;;12.75;3.13;;;;;;;30.08;29.89;100673.50;5007810;28;20676;-79
2023/07/09 11:16:25;;;;;;;24.48;3.33;;;;;;;30.24;30.33;100685.69;5025089;28;20048;-80
2023/07/09 11:19:00;;;;;;;8.80;2.85;;;;;;;30.40;30.94;100700.66;5024283;28;20121;-80
2023/07/09 11:21:25;;;;;;;12.10;2.53;;;;;;;30.32;30.48;100676.09;5024378;28;20479;-79
2023/07/09 11:24:00;;;;;;;15.88;3.42;;;;;;;30.34;30.54;100685.00;5024283;28;20038;-79
2023/07/09 11:26:27;;;;;;;23.23;3.10;;;;;;;30.42;30.72;100681.84;5024725;28;20037;-79
2023/07/09 11:29:15;;;;;;;15.80;2.85;;;;;;;30.45;30.74;100675.78;5025289;28;20038;-81
2023/07/09 11:31:47;;;;;;;12.32;3.28;;;;;;;30.42;29.94;100663.25;5024519;28;20714;-79
2023/07/09 11:34:12;;;;;;;;;;;;;;;30.68;29.97;100686.69;5026184;28;20029;-79